createdAt,value
2022-09-12T00:01:19.513Z,66.57
2022-09-12T00:03:46.240Z,65.62
2022-09-12T00:06:21.959Z,65.33
2022-09-12T00:08:49.758Z,66.93
2022-09-12T00:11:16.395Z,65.28
2022-09-12T00:13:44.340Z,63.79
2022-09-12T00:16:21.835Z,64.13
2022-09-12T00:18:49.332Z,63.90
2022-09-12T00:21:21.542Z,63.26
2022-09-12T00:23:48.737Z,62.48
2022-09-12T00:26:17.290Z,64.93
2022-09-12T00:28:44.693Z,65.33
2022-09-12T00:31:14.283Z,63.17
2022-09-12T00:33:41.356Z,62.40
2022-09-12T00:36:13.025Z,62.93
2022-09-12T00:38:42.192Z,62.00
2022-09-12T00:41:21.397Z,61.84
2022-09-12T00:43:51.176Z,62.06
2022-09-12T00:46:39.553Z,62.01
2022-09-12T00:49:17.124Z,64.50
2022-09-12T00:51:49.578Z,62.82
2022-09-12T00:54:21.547Z,63.14
2022-09-12T00:56:53.871Z,63.35
2022-09-12T00:59:30.111Z,61.70
2022-09-12T01:01:57.177Z,61.29
2022-09-12T01:04:26.052Z,61.79
2022-09-12T01:06:54.517Z,62.21
2022-09-12T01:09:23.287Z,64.38
2022-09-12T01:11:51.333Z,62.70
2022-09-12T01:14:20.355Z,62.83
2022-09-12T01:16:49.989Z,63.26
2022-09-12T01:19:25.192Z,62.68
2022-09-12T01:22:10.243Z,63.07
2022-09-12T01:24:54.039Z,62.45
2022-09-12T01:27:51.727Z,61.03
2022-09-12T01:30:33.397Z,60.98
2022-09-12T01:33:44.633Z,62.17
2022-09-12T01:36:38.526Z,60.47
2022-09-12T01:39:12.887Z,60.89
2022-09-12T01:41:42.420Z,60.52
2022-09-12T01:44:23.133Z,60.53
2022-09-12T01:47:25.155Z,61.25
2022-09-12T01:50:07.976Z,61.30
2022-09-12T01:52:37.664Z,61.55
2022-09-12T01:55:10.387Z,61.72
2022-09-12T01:57:51.186Z,62.73
2022-09-12T02:00:18.056Z,61.95
2022-09-12T02:03:10.391Z,62.62
2022-09-12T02:05:45.243Z,61.28
2022-09-12T02:08:19.306Z,60.24
2022-09-12T02:11:10.577Z,62.86
2022-09-12T02:13:49.986Z,64.01
2022-09-12T02:16:22.440Z,63.65
2022-09-12T02:18:57.885Z,63.04
2022-09-12T02:21:27.578Z,63.56
2022-09-12T02:23:58.472Z,62.82
2022-09-12T02:26:32.981Z,62.55
2022-09-12T02:28:59.908Z,62.28
2022-09-12T02:31:42.752Z,61.83
2022-09-12T02:34:49.539Z,61.43
2022-09-12T02:37:25.969Z,61.84
2022-09-12T02:39:55.211Z,61.01
2022-09-12T02:42:22.732Z,61.28
2022-09-12T02:44:51.625Z,60.89
2022-09-12T02:47:49.421Z,60.19
2022-09-12T02:50:16.950Z,59.93
2022-09-12T02:52:44.322Z,60.71
2022-09-12T02:55:12.223Z,63.30
2022-09-12T02:57:39.134Z,62.26
2022-09-12T03:00:06.730Z,61.65
2022-09-12T03:02:59.285Z,61.47
2022-09-12T03:05:33.506Z,61.26
2022-09-12T03:08:40.455Z,63.43
2022-09-12T03:11:14.671Z,64.05
2022-09-12T03:14:02.600Z,63.32
2022-09-12T03:16:40.765Z,63.40
2022-09-12T03:19:34.304Z,63.86
2022-09-12T03:22:25.423Z,63.64
2022-09-12T03:25:14.337Z,62.63
2022-09-12T03:27:52.437Z,62.90
2022-09-12T03:30:19.153Z,62.87
2022-09-12T03:32:49.217Z,63.68
2022-09-12T03:35:22.866Z,64.33
2022-09-12T03:37:51.218Z,62.42
2022-09-12T03:40:17.986Z,62.38
2022-09-12T03:42:44.644Z,63.64
2022-09-12T03:45:12.112Z,64.39
2022-09-12T03:47:39.568Z,63.88
2022-09-12T03:50:06.786Z,61.86
2022-09-12T03:52:33.577Z,62.39
2022-09-12T03:55:00.458Z,61.74
2022-09-12T03:57:27.106Z,61.45
2022-09-12T03:59:54.080Z,61.35
2022-09-12T04:02:21.289Z,61.56
2022-09-12T04:04:48.918Z,61.57
2022-09-12T04:07:19.192Z,60.97
2022-09-12T04:09:45.799Z,61.16
2022-09-12T04:12:14.101Z,61.48
2022-09-12T04:14:40.803Z,60.67
2022-09-12T04:17:07.671Z,60.68
2022-09-12T04:19:34.412Z,62.35
2022-09-12T04:22:01.059Z,62.21
2022-09-12T04:24:27.666Z,62.51
2022-09-12T04:26:54.298Z,62.37
2022-09-12T04:29:20.943Z,62.65
2022-09-12T04:31:47.680Z,62.72
2022-09-12T04:34:15.250Z,62.16
2022-09-12T04:36:42.240Z,61.72
2022-09-12T04:39:10.098Z,61.23
2022-09-12T04:41:38.829Z,61.22
2022-09-12T04:44:12.485Z,60.92
2022-09-12T04:46:42.620Z,61.29
2022-09-12T04:49:09.743Z,62.10
2022-09-12T04:51:38.421Z,61.93
2022-09-12T04:54:08.307Z,61.72
2022-09-12T04:56:39.219Z,60.86
2022-09-12T04:59:06.922Z,59.84
2022-09-12T05:01:33.744Z,59.91
2022-09-12T05:04:00.640Z,60.48
2022-09-12T05:06:31.677Z,60.76
2022-09-12T05:08:59.752Z,60.29
2022-09-12T05:12:02.613Z,61.55
2022-09-12T05:14:24.620Z,61.12
2022-09-12T05:16:51.213Z,60.72
2022-09-12T05:19:18.123Z,59.12
2022-09-12T05:21:44.726Z,60.41
2022-09-12T05:24:11.668Z,60.43
2022-09-12T05:26:38.626Z,59.24
2022-09-12T05:29:06.144Z,59.21
2022-09-12T05:31:32.974Z,58.99
2022-09-12T05:33:59.531Z,59.60
2022-09-12T05:36:30.451Z,60.28
2022-09-12T05:38:59.749Z,61.00
2022-09-12T05:41:29.586Z,59.60
2022-09-12T05:44:01.294Z,59.70
2022-09-12T05:46:30.145Z,59.67
2022-09-12T05:48:58.394Z,59.06
2022-09-12T05:51:27.243Z,59.17
2022-09-12T05:53:59.250Z,58.62
2022-09-12T05:56:31.752Z,58.55
2022-09-12T05:59:01.037Z,57.85
2022-09-12T06:01:29.545Z,56.37
2022-09-12T06:04:00.834Z,56.31
2022-09-12T06:06:29.339Z,55.77
2022-09-12T06:09:02.151Z,54.69
2022-09-12T06:11:31.110Z,56.08
2022-09-12T06:13:58.598Z,55.30
2022-09-12T06:16:30.499Z,54.94
2022-09-12T06:19:00.019Z,55.25
2022-09-12T06:21:27.092Z,55.91
2022-09-12T06:23:55.022Z,56.34
2022-09-12T06:26:23.563Z,56.78
2022-09-12T06:28:50.805Z,57.09
2022-09-12T06:31:22.248Z,56.75
2022-09-12T06:33:50.875Z,56.30
2022-09-12T06:36:25.678Z,56.08
2022-09-12T06:39:01.139Z,55.97
2022-09-12T06:41:29.316Z,57.88
2022-09-12T06:43:56.190Z,58.78
2022-09-12T06:46:23.191Z,58.65
2022-09-12T06:48:50.612Z,60.47
2022-09-12T06:51:20.057Z,60.17
2022-09-12T06:53:47.625Z,59.72
2022-09-12T06:56:19.586Z,59.93
2022-09-12T06:58:47.524Z,58.82
2022-09-12T07:01:24.908Z,59.91
2022-09-12T07:03:56.579Z,60.43
2022-09-12T07:06:37.716Z,59.21
2022-09-12T07:09:06.306Z,59.58
2022-09-12T07:11:35.261Z,59.07
2022-09-12T07:14:04.076Z,58.25
2022-09-12T07:16:30.867Z,58.34
2022-09-12T07:19:00.152Z,55.83
2022-09-12T07:21:27.581Z,55.56
2022-09-12T07:24:00.637Z,55.76
2022-09-12T07:26:29.242Z,56.18
2022-09-12T07:29:12.877Z,55.75
2022-09-12T07:31:44.717Z,54.41
2022-09-12T07:34:11.424Z,53.64
2022-09-12T07:36:38.719Z,55.39
2022-09-12T07:39:05.982Z,54.75
2022-09-12T07:41:37.205Z,56.14
2022-09-12T07:44:05.068Z,55.09
2022-09-12T07:46:32.042Z,55.38
2022-09-12T07:49:00.181Z,54.03
2022-09-12T07:51:28.496Z,52.91
2022-09-12T07:53:56.433Z,51.82
2022-09-12T07:56:28.798Z,51.27
2022-09-12T07:58:57.005Z,52.05
2022-09-12T08:01:23.735Z,50.89
2022-09-12T08:03:54.496Z,51.35
2022-09-12T08:06:24.320Z,52.14
2022-09-12T08:08:52.730Z,52.67
2022-09-12T08:11:23.543Z,52.37
2022-09-12T08:13:55.434Z,52.62
2022-09-12T08:16:24.965Z,53.46
2022-09-12T08:18:51.824Z,54.11
2022-09-12T08:21:22.711Z,53.28
2022-09-12T08:24:00.961Z,52.93
2022-09-12T08:26:28.375Z,51.61
2022-09-12T08:28:55.287Z,51.86
2022-09-12T08:31:24.472Z,53.31
2022-09-12T08:33:51.871Z,52.27
2022-09-12T08:36:21.482Z,51.75
2022-09-12T08:38:50.841Z,51.73
2022-09-12T08:41:43.494Z,53.11
2022-09-12T08:44:31.657Z,53.32
2022-09-12T08:47:22.747Z,52.71
2022-09-12T08:50:10.904Z,52.63
2022-09-12T08:52:43.477Z,52.99
2022-09-12T08:55:28.118Z,51.56
2022-09-12T08:57:54.883Z,50.12
2022-09-12T09:00:22.088Z,50.92
2022-09-12T09:03:50.455Z,51.78
2022-09-12T09:06:26.954Z,51.40
2022-09-12T09:09:12.213Z,52.30
2022-09-12T09:11:48.236Z,51.01
2022-09-12T09:14:56.553Z,51.05
2022-09-12T09:17:29.730Z,49.82
2022-09-12T09:20:03.358Z,50.98
2022-09-12T09:22:46.160Z,49.07
2022-09-12T09:25:35.868Z,49.29
2022-09-12T09:28:06.921Z,50.72
2022-09-12T09:30:36.059Z,51.05
2022-09-12T09:33:04.968Z,49.84
2022-09-12T09:35:48.854Z,50.38
2022-09-12T09:38:36.799Z,49.31
2022-09-12T09:41:46.973Z,50.61
2022-09-12T09:44:13.757Z,50.50
2022-09-12T09:46:40.461Z,50.11
2022-09-12T09:49:12.042Z,50.66
2022-09-12T09:51:40.792Z,51.58
2022-09-12T09:54:13.222Z,50.82
2022-09-12T09:56:42.559Z,51.60
2022-09-12T09:59:27.189Z,50.40
2022-09-12T10:01:57.863Z,50.36
2022-09-12T10:04:27.973Z,50.47
2022-09-12T10:06:58.045Z,51.42
2022-09-12T10:09:33.230Z,51.89
2022-09-12T10:12:04.878Z,51.72
2022-09-12T10:14:36.813Z,49.93
2022-09-12T10:17:34.229Z,50.39
2022-09-12T10:20:21.443Z,48.50
2022-09-12T10:22:49.087Z,47.58
2022-09-12T10:25:19.397Z,47.80
2022-09-12T10:27:54.239Z,48.66
2022-09-12T10:30:24.916Z,47.59
2022-09-12T10:32:52.042Z,48.89
2022-09-12T10:35:20.755Z,48.09
2022-09-12T10:38:07.271Z,48.35
2022-09-12T10:40:40.885Z,47.61
2022-09-12T10:43:25.543Z,47.63
2022-09-12T10:45:55.481Z,47.37
2022-09-12T10:48:24.868Z,48.67
2022-09-12T10:50:51.991Z,50.46
2022-09-12T10:53:25.189Z,50.38
2022-09-12T10:56:09.581Z,49.01
2022-09-12T10:58:41.929Z,47.88
2022-09-12T11:01:14.648Z,46.40
2022-09-12T11:04:26.054Z,46.44
2022-09-12T11:07:17.493Z,44.50
2022-09-12T11:09:55.967Z,44.62
2022-09-12T11:12:41.581Z,44.91
2022-09-12T11:15:23.244Z,45.26
2022-09-12T11:18:25.168Z,45.67
2022-09-12T11:21:26.822Z,45.64
2022-09-12T11:24:20.799Z,46.62
2022-09-12T11:27:11.967Z,48.66
2022-09-12T11:29:49.145Z,48.50
2022-09-12T11:32:51.071Z,48.04
2022-09-12T11:35:29.854Z,47.05
2022-09-12T11:38:25.631Z,48.07
2022-09-12T11:41:21.278Z,51.34
2022-09-12T11:44:01.491Z,49.46
2022-09-12T11:46:36.370Z,49.34
2022-09-12T11:49:15.603Z,49.78
2022-09-12T11:51:58.087Z,49.44
2022-09-12T11:54:29.717Z,49.06
2022-09-12T11:57:18.625Z,49.26
2022-09-12T11:59:58.482Z,49.50
2022-09-12T12:02:39.447Z,48.34
2022-09-12T12:05:15.103Z,47.08
2022-09-12T12:07:45.562Z,47.47
2022-09-12T12:10:27.273Z,47.46
2022-09-12T12:12:56.610Z,48.03
2022-09-12T12:15:25.683Z,48.02
2022-09-12T12:18:17.655Z,46.42
2022-09-12T12:20:44.671Z,46.40
2022-09-12T12:23:27.032Z,46.51
2022-09-12T12:25:58.944Z,46.86
2022-09-12T12:28:50.642Z,47.15
2022-09-12T12:31:18.531Z,46.61
2022-09-12T12:33:45.188Z,46.96
2022-09-12T12:36:36.773Z,46.41
2022-09-12T12:39:31.515Z,45.87
2022-09-12T12:42:01.625Z,47.09
2022-09-12T12:44:48.602Z,46.49
2022-09-12T12:47:38.222Z,45.66
2022-09-12T12:50:04.916Z,45.67
2022-09-12T12:52:41.858Z,46.91
2022-09-12T12:55:20.306Z,47.24
2022-09-12T12:58:07.598Z,47.76
2022-09-12T13:00:39.702Z,48.95
2022-09-12T13:03:09.530Z,48.08
2022-09-12T13:05:46.255Z,48.27
2022-09-12T13:08:19.022Z,49.12
2022-09-12T13:10:59.685Z,49.73
2022-09-12T13:13:52.974Z,49.08
2022-09-12T13:16:37.747Z,49.38
2022-09-12T13:19:18.247Z,50.20
2022-09-12T13:22:01.091Z,48.79
2022-09-12T13:24:28.242Z,49.76
2022-09-12T13:26:55.407Z,50.41
2022-09-12T13:29:25.154Z,49.52
2022-09-12T13:31:56.019Z,48.73
2022-09-12T13:34:26.092Z,48.40
2022-09-12T13:37:28.045Z,48.20
2022-09-12T13:40:39.318Z,48.94
2022-09-12T13:43:08.520Z,47.56
2022-09-12T13:45:42.168Z,48.00
2022-09-12T13:48:16.999Z,48.73
2022-09-12T13:50:53.978Z,48.00
2022-09-12T13:53:24.142Z,47.72
2022-09-12T13:55:56.388Z,47.38
2022-09-12T13:58:26.388Z,47.40
2022-09-12T14:01:07.367Z,47.52
2022-09-12T14:04:08.731Z,47.64
2022-09-12T14:06:57.402Z,48.43
2022-09-12T14:09:31.160Z,47.27
2022-09-12T14:11:58.866Z,46.71
2022-09-12T14:14:34.316Z,46.10
2022-09-12T14:17:00.967Z,45.99
2022-09-12T14:19:29.338Z,46.79
2022-09-12T14:21:59.102Z,45.83
2022-09-12T14:24:26.187Z,45.77
2022-09-12T14:26:55.642Z,45.99
2022-09-12T14:29:23.930Z,47.32
2022-09-12T14:32:02.931Z,47.53
2022-09-12T14:34:29.984Z,47.38
2022-09-12T14:36:57.854Z,46.82
2022-09-12T14:39:43.334Z,46.96
2022-09-12T14:42:22.369Z,46.24
2022-09-12T14:44:58.743Z,47.62
2022-09-12T14:47:28.198Z,48.62
2022-09-12T14:49:55.006Z,47.69
2022-09-12T14:52:26.420Z,47.59
2022-09-12T14:55:29.689Z,48.00
2022-09-12T14:58:21.093Z,48.15
2022-09-12T15:01:00.100Z,47.93
2022-09-12T15:03:51.720Z,47.45
2022-09-12T15:06:40.123Z,46.70
2022-09-12T15:09:12.375Z,47.34
2022-09-12T15:11:39.485Z,48.27
2022-09-12T15:14:13.798Z,48.06
2022-09-12T15:16:40.405Z,47.45
2022-09-12T15:19:07.066Z,48.31
2022-09-12T15:21:33.684Z,48.79
2022-09-12T15:24:00.302Z,47.96
2022-09-12T15:26:30.608Z,48.34
2022-09-12T15:28:57.673Z,48.46
2022-09-12T15:31:31.988Z,48.91
2022-09-12T15:34:00.712Z,47.78
2022-09-12T15:36:28.949Z,47.68
2022-09-12T15:38:56.001Z,46.05
2022-09-12T15:41:29.277Z,46.04
2022-09-12T15:43:56.812Z,46.00
2022-09-12T15:46:24.008Z,46.83
2022-09-12T15:48:50.865Z,47.10
2022-09-12T15:51:20.089Z,47.31
2022-09-12T15:53:48.223Z,47.22
2022-09-12T15:56:16.492Z,46.79
2022-09-12T15:58:57.772Z,48.04
2022-09-12T16:01:25.321Z,48.78
2022-09-12T16:03:52.181Z,46.26
2022-09-12T16:06:18.837Z,45.23
2022-09-12T16:08:46.271Z,44.60
2022-09-12T16:11:26.985Z,45.93
2022-09-12T16:13:54.370Z,48.07
2022-09-12T16:16:21.495Z,45.06
2022-09-12T16:18:48.248Z,44.65
2022-09-12T16:21:15.882Z,44.53
2022-09-12T16:23:46.970Z,44.98
2022-09-12T16:26:14.508Z,44.62
2022-09-12T16:28:41.428Z,44.55
2022-09-12T16:31:10.408Z,45.36
2022-09-12T16:33:38.240Z,45.67
2022-09-12T16:36:10.228Z,45.29
2022-09-12T16:38:44.417Z,46.56
2022-09-12T16:41:11.908Z,47.74
2022-09-12T16:43:39.069Z,47.70
2022-09-12T16:46:08.574Z,48.54
2022-09-12T16:48:37.246Z,48.32
2022-09-12T16:51:06.986Z,47.59
2022-09-12T16:53:36.770Z,47.02
2022-09-12T16:56:07.274Z,46.67
2022-09-12T16:58:41.922Z,45.98
2022-09-12T17:01:13.828Z,45.96
2022-09-12T17:03:40.859Z,45.58
2022-09-12T17:06:13.009Z,45.92
2022-09-12T17:08:45.556Z,45.56
2022-09-12T17:11:17.746Z,44.85
2022-09-12T17:14:06.927Z,44.91
2022-09-12T17:16:36.652Z,45.05
2022-09-12T17:19:04.516Z,45.58
2022-09-12T17:21:31.952Z,45.22
2022-09-12T17:23:59.443Z,46.06
2022-09-12T17:26:26.832Z,45.53
2022-09-12T17:28:53.645Z,45.62
2022-09-12T17:31:20.407Z,45.97
2022-09-12T17:33:47.252Z,45.20
2022-09-12T17:36:16.897Z,45.33
2022-09-12T17:38:45.263Z,45.30
2022-09-12T17:41:18.116Z,44.83
2022-09-12T17:43:50.350Z,44.52
2022-09-12T17:46:22.310Z,43.87
2022-09-12T17:48:56.409Z,44.06
2022-09-12T17:51:25.878Z,44.98
2022-09-12T17:54:02.327Z,45.52
2022-09-12T17:56:31.566Z,45.20
2022-09-12T17:58:59.520Z,45.99
2022-09-12T18:01:47.037Z,45.49
2022-09-12T18:04:15.331Z,46.02
2022-09-12T18:06:48.967Z,45.68
2022-09-12T18:09:18.656Z,46.15
2022-09-12T18:11:46.152Z,45.67
2022-09-12T18:14:14.352Z,46.11
2022-09-12T18:16:41.646Z,46.02
2022-09-12T18:19:08.350Z,45.69
2022-09-12T18:21:35.137Z,45.32
2022-09-12T18:24:03.459Z,45.74
2022-09-12T18:26:31.488Z,45.58
2022-09-12T18:28:59.540Z,46.12
2022-09-12T18:31:29.147Z,45.70
2022-09-12T18:33:56.332Z,46.38
2022-09-12T18:36:23.700Z,46.97
2022-09-12T18:38:50.389Z,48.51
2022-09-12T18:41:19.852Z,46.92
2022-09-12T18:43:47.352Z,47.32
2022-09-12T18:46:20.110Z,48.10
2022-09-12T18:48:46.956Z,47.46
2022-09-12T18:51:16.471Z,48.95
2022-09-12T18:53:43.893Z,48.53
2022-09-12T18:56:12.726Z,48.66
2022-09-12T18:58:42.625Z,48.16
2022-09-12T19:01:11.798Z,49.01
2022-09-12T19:03:40.082Z,49.38
2022-09-12T19:06:12.210Z,49.90
2022-09-12T19:08:39.238Z,48.02
2022-09-12T19:11:06.569Z,48.25
2022-09-12T19:13:38.728Z,47.39
2022-09-12T19:16:09.206Z,47.75
2022-09-12T19:18:37.147Z,47.29
2022-09-12T19:21:05.140Z,47.34
2022-09-12T19:23:33.174Z,46.99
2022-09-12T19:26:03.677Z,46.60
2022-09-12T19:28:31.243Z,46.72
2022-09-12T19:30:59.917Z,47.41
2022-09-12T19:33:26.504Z,48.15
2022-09-12T19:35:53.180Z,47.55
2022-09-12T19:38:19.763Z,46.63
2022-09-12T19:40:57.380Z,48.09
2022-09-12T19:43:24.372Z,47.96
2022-09-12T19:45:52.040Z,49.05
2022-09-12T19:48:19.995Z,48.28
2022-09-12T19:50:46.850Z,48.52
2022-09-12T19:53:15.615Z,48.14
2022-09-12T19:55:42.856Z,48.11
2022-09-12T19:58:09.833Z,49.50
2022-09-12T20:00:37.385Z,48.98
2022-09-12T20:03:05.865Z,49.09
2022-09-12T20:05:33.506Z,48.74
2022-09-12T20:08:00.848Z,47.76
2022-09-12T20:10:27.560Z,47.78
2022-09-12T20:12:54.201Z,48.12
2022-09-12T20:15:20.963Z,48.13
2022-09-12T20:17:47.568Z,47.42
2022-09-12T20:20:14.222Z,47.87
2022-09-12T20:22:40.857Z,48.96
2022-09-12T20:25:08.098Z,48.43
2022-09-12T20:27:34.889Z,47.89
2022-09-12T20:30:01.536Z,48.83
2022-09-12T20:32:29.076Z,48.54
2022-09-12T20:34:56.472Z,49.22
2022-09-12T20:37:23.719Z,49.00
2022-09-12T20:39:51.081Z,47.98
2022-09-12T20:42:17.969Z,47.92
2022-09-12T20:44:44.691Z,48.54
2022-09-12T20:47:11.459Z,47.85
2022-09-12T20:49:38.106Z,48.15
2022-09-12T20:52:04.773Z,48.25
2022-09-12T20:54:31.383Z,48.48
2022-09-12T20:56:58.012Z,48.05
2022-09-12T20:59:24.601Z,47.79
2022-09-12T21:01:51.397Z,48.62
2022-09-12T21:04:18.553Z,48.11
2022-09-12T21:06:45.203Z,48.06
2022-09-12T21:09:11.866Z,48.79
2022-09-12T21:11:38.437Z,48.11
2022-09-12T21:14:05.181Z,48.81
2022-09-12T21:16:38.369Z,47.96
2022-09-12T21:19:06.567Z,48.69
2022-09-12T21:21:33.231Z,48.14
2022-09-12T21:24:02.705Z,49.30
2022-09-12T21:26:30.189Z,49.35
2022-09-12T21:28:57.480Z,49.31
2022-09-12T21:31:24.476Z,49.04
2022-09-12T21:33:51.932Z,49.56
2022-09-12T21:36:18.577Z,49.37
2022-09-12T21:38:45.165Z,50.23
2022-09-12T21:41:14.008Z,48.75
2022-09-12T21:43:41.523Z,50.29
2022-09-12T21:46:08.904Z,51.23
2022-09-12T21:48:36.032Z,50.08
2022-09-12T21:51:03.483Z,50.16
2022-09-12T21:53:31.143Z,50.95
2022-09-12T21:56:02.642Z,50.38
2022-09-12T21:58:29.267Z,50.49
2022-09-12T22:00:56.305Z,50.70
2022-09-12T22:03:22.946Z,50.42
2022-09-12T22:06:02.218Z,50.84
2022-09-12T22:08:30.907Z,50.98
2022-09-12T22:11:02.613Z,50.77
2022-09-12T22:13:32.380Z,50.76
2022-09-12T22:16:01.140Z,50.88
2022-09-12T22:18:27.826Z,50.20
2022-09-12T22:21:09.777Z,50.70
2022-09-12T22:23:55.188Z,51.14
2022-09-12T22:26:22.073Z,51.69
2022-09-12T22:28:49.269Z,51.10
2022-09-12T22:31:17.077Z,51.27
2022-09-12T22:33:43.830Z,51.12
2022-09-12T22:36:10.551Z,52.71
2022-09-12T22:38:37.631Z,51.59
2022-09-12T22:41:09.412Z,51.78
2022-09-12T22:43:36.647Z,53.03
2022-09-12T22:46:12.289Z,52.08
2022-09-12T22:48:39.563Z,52.69
2022-09-12T22:51:06.856Z,52.66
2022-09-12T22:53:34.357Z,53.54
2022-09-12T22:56:02.255Z,53.63
2022-09-12T22:58:29.087Z,52.75
2022-09-12T23:00:55.893Z,53.11
2022-09-12T23:03:22.605Z,52.62
2022-09-12T23:05:49.305Z,53.71
2022-09-12T23:08:17.846Z,54.12
2022-09-12T23:10:44.480Z,54.01
2022-09-12T23:13:11.211Z,53.35
2022-09-12T23:15:37.970Z,53.39
2022-09-12T23:18:05.236Z,53.98
2022-09-12T23:20:31.963Z,53.54
2022-09-12T23:22:58.639Z,53.24
2022-09-12T23:25:26.228Z,54.35
2022-09-12T23:27:53.551Z,54.08
2022-09-12T23:30:21.606Z,54.80
2022-09-12T23:32:49.156Z,55.19
2022-09-12T23:35:19.538Z,54.65
2022-09-12T23:37:46.887Z,55.15
2022-09-12T23:40:13.846Z,53.88
2022-09-12T23:42:40.500Z,53.11
2022-09-12T23:45:07.583Z,54.16
2022-09-12T23:47:34.190Z,55.02
2022-09-12T23:50:00.924Z,56.25
2022-09-12T23:52:27.468Z,56.84
2022-09-12T23:54:54.103Z,55.55
2022-09-12T23:57:20.988Z,55.18
2022-09-12T23:59:47.724Z,53.65
